createdAt,value
2023-02-17T00:00:51.827Z,26.00
2023-02-17T00:01:51.816Z,26.70
2023-02-17T00:02:51.803Z,25.80
2023-02-17T00:04:12.802Z,25.80
2023-02-17T00:04:51.793Z,26.60
2023-02-17T00:05:51.776Z,26.40
2023-02-17T00:06:51.764Z,27.10
2023-02-17T00:07:51.756Z,27.90
2023-02-17T00:08:51.758Z,27.90
2023-02-17T00:10:12.741Z,28.50
2023-02-17T00:10:51.727Z,27.80
2023-02-17T00:11:51.719Z,29.20
2023-02-17T00:12:51.715Z,29.20
2023-02-17T00:13:51.702Z,28.50
2023-02-17T00:14:51.696Z,28.80
2023-02-17T00:16:12.738Z,28.10
2023-02-17T00:16:51.739Z,28.80
2023-02-17T00:17:51.672Z,28.30
2023-02-17T00:18:51.650Z,28.60
2023-02-17T00:19:51.642Z,28.30
2023-02-17T00:20:51.640Z,29.00
2023-02-17T00:22:12.631Z,28.40
2023-02-17T00:22:51.621Z,28.40
2023-02-17T00:23:51.605Z,28.70
2023-02-17T00:24:51.595Z,29.40
2023-02-17T00:25:51.593Z,29.50
2023-02-17T00:26:51.575Z,29.40
2023-02-17T00:28:12.573Z,28.80
2023-02-17T00:28:51.572Z,28.90
2023-02-17T00:29:51.560Z,29.80
2023-02-17T00:30:51.624Z,29.60
2023-02-17T00:31:51.612Z,29.50
2023-02-17T00:32:51.524Z,29.80
2023-02-17T00:34:12.517Z,29.10
2023-02-17T00:34:51.535Z,28.80
2023-02-17T00:35:51.488Z,30.40
2023-02-17T00:36:51.487Z,30.10
2023-02-17T00:37:51.472Z,29.60
2023-02-17T00:38:51.469Z,30.10
2023-02-17T00:40:12.461Z,31.20
2023-02-17T00:40:51.451Z,30.60
2023-02-17T00:41:51.436Z,30.90
2023-02-17T00:42:51.430Z,30.60
2023-02-17T00:43:51.420Z,30.50
2023-02-17T00:44:51.405Z,30.80
2023-02-17T00:46:12.494Z,30.20
2023-02-17T00:46:51.447Z,29.80
2023-02-17T00:47:51.384Z,30.30
2023-02-17T00:48:51.399Z,29.50
2023-02-17T00:49:51.359Z,30.00
2023-02-17T00:50:51.353Z,29.50
2023-02-17T00:52:12.348Z,29.20
2023-02-17T00:52:51.330Z,29.60
2023-02-17T00:53:51.324Z,29.80
2023-02-17T00:54:51.314Z,29.50
2023-02-17T00:55:51.308Z,29.70
2023-02-17T00:56:51.295Z,29.40
2023-02-17T00:58:12.295Z,29.60
2023-02-17T00:58:51.271Z,29.60
2023-02-17T00:59:51.272Z,30.70
2023-02-17T01:00:51.253Z,29.60
2023-02-17T01:01:51.275Z,30.30
2023-02-17T01:02:51.241Z,29.70
2023-02-17T01:04:12.239Z,29.70
2023-02-17T01:04:51.287Z,30.20
2023-02-17T01:05:51.208Z,29.50
2023-02-17T01:06:51.194Z,29.40
2023-02-17T01:07:51.201Z,29.40
2023-02-17T01:08:51.184Z,29.10
2023-02-17T01:10:12.234Z,30.30
2023-02-17T01:10:51.165Z,30.30
2023-02-17T01:11:51.156Z,30.00
2023-02-17T01:12:51.149Z,31.30
2023-02-17T01:13:51.130Z,30.90
2023-02-17T01:14:51.120Z,30.30
2023-02-17T01:16:12.163Z,29.90
2023-02-17T01:16:51.102Z,30.40
2023-02-17T01:17:51.110Z,30.10
2023-02-17T01:18:51.084Z,29.40
2023-02-17T01:19:51.084Z,29.00
2023-02-17T01:20:51.070Z,29.00
2023-02-17T01:22:12.067Z,28.90
2023-02-17T01:22:51.044Z,29.60
2023-02-17T01:23:51.046Z,29.80
2023-02-17T01:24:51.057Z,30.70
2023-02-17T01:25:51.039Z,29.50
2023-02-17T01:26:51.010Z,29.90
2023-02-17T01:28:12.006Z,29.70
2023-02-17T01:28:50.987Z,28.20
2023-02-17T01:29:50.983Z,29.50
2023-02-17T01:30:51.017Z,28.60
2023-02-17T01:31:50.979Z,28.50
2023-02-17T01:32:50.950Z,28.50
2023-02-17T01:34:11.959Z,28.50
2023-02-17T01:34:50.932Z,28.40
2023-02-17T01:35:50.928Z,28.10
2023-02-17T01:36:50.908Z,28.50
2023-02-17T01:37:50.904Z,27.50
2023-02-17T01:38:50.894Z,28.30
2023-02-17T01:40:11.888Z,28.50
2023-02-17T01:40:50.871Z,28.50
2023-02-17T01:41:50.865Z,28.10
2023-02-17T01:42:50.848Z,27.30
2023-02-17T01:43:50.845Z,27.80
2023-02-17T01:44:50.843Z,28.30
2023-02-17T01:46:11.895Z,27.70
2023-02-17T01:46:50.903Z,27.50
2023-02-17T01:47:50.809Z,27.50
2023-02-17T01:48:50.807Z,27.60
2023-02-17T01:49:50.788Z,27.00
2023-02-17T01:50:50.781Z,27.60
2023-02-17T01:52:11.795Z,27.20
2023-02-17T01:52:50.753Z,28.80
2023-02-17T01:53:50.741Z,30.10
2023-02-17T01:54:50.743Z,30.00
2023-02-17T01:55:50.725Z,30.60
2023-02-17T01:56:50.716Z,30.40
2023-02-17T01:58:11.711Z,30.90
2023-02-17T01:58:50.695Z,31.10
2023-02-17T01:59:50.682Z,32.50
2023-02-17T02:00:50.682Z,32.80
2023-02-17T02:01:50.724Z,33.40
2023-02-17T02:02:50.830Z,33.90
2023-02-17T02:04:11.649Z,35.50
2023-02-17T02:04:50.636Z,34.30
2023-02-17T02:05:50.627Z,33.90
2023-02-17T02:06:50.626Z,36.00
2023-02-17T02:07:50.603Z,36.90
2023-02-17T02:08:50.604Z,38.70
2023-02-17T02:10:11.589Z,38.80
2023-02-17T02:10:50.581Z,39.40
2023-02-17T02:11:50.567Z,39.00
2023-02-17T02:12:50.565Z,41.10
2023-02-17T02:13:50.552Z,38.20
2023-02-17T02:14:50.548Z,38.30
2023-02-17T02:16:11.586Z,41.00
2023-02-17T02:16:50.525Z,41.80
2023-02-17T02:17:50.511Z,43.30
2023-02-17T02:18:50.504Z,41.80
2023-02-17T02:19:50.492Z,41.70
2023-02-17T02:20:50.488Z,43.70
2023-02-17T02:22:11.488Z,43.50
2023-02-17T02:22:50.469Z,43.50
2023-02-17T02:23:50.464Z,43.70
2023-02-17T02:24:50.454Z,44.70
2023-02-17T02:25:50.434Z,41.60
2023-02-17T02:26:50.429Z,43.50
2023-02-17T02:28:11.425Z,44.00
2023-02-17T02:28:50.410Z,43.20
2023-02-17T02:29:50.395Z,45.00
2023-02-17T02:30:50.417Z,44.60
2023-02-17T02:31:50.469Z,44.60
2023-02-17T02:32:50.372Z,46.00
2023-02-17T02:34:11.372Z,45.20
2023-02-17T02:34:50.351Z,45.00
2023-02-17T02:35:50.340Z,44.00
2023-02-17T02:36:50.339Z,42.80
2023-02-17T02:37:50.321Z,42.80
2023-02-17T02:38:50.313Z,42.60
2023-02-17T02:40:11.324Z,42.20
2023-02-17T02:40:50.299Z,44.10
2023-02-17T02:41:50.417Z,43.70
2023-02-17T02:42:50.280Z,45.30
2023-02-17T02:43:50.261Z,43.70
2023-02-17T02:44:50.255Z,43.30
2023-02-17T02:46:11.333Z,43.10
2023-02-17T02:46:50.238Z,44.30
2023-02-17T02:47:50.240Z,43.20
2023-02-17T02:48:50.219Z,46.50
2023-02-17T02:49:50.212Z,46.90
2023-02-17T02:50:50.199Z,46.10
2023-02-17T02:52:11.191Z,48.50
2023-02-17T02:52:50.175Z,46.50
2023-02-17T02:53:50.170Z,47.20
2023-02-17T02:54:50.158Z,47.30
2023-02-17T02:55:50.145Z,47.80
2023-02-17T02:56:50.139Z,49.10
2023-02-17T02:58:11.129Z,49.80
2023-02-17T02:58:50.121Z,51.10
2023-02-17T02:59:50.106Z,47.70
2023-02-17T03:00:50.135Z,50.30
2023-02-17T03:01:50.084Z,51.20
2023-02-17T03:02:50.080Z,49.90
2023-02-17T03:04:11.116Z,49.10
2023-02-17T03:04:50.059Z,50.80
2023-02-17T03:05:50.050Z,51.80
2023-02-17T03:06:50.053Z,51.90
2023-02-17T03:07:50.036Z,49.80
2023-02-17T03:08:50.019Z,50.60
2023-02-17T03:10:11.040Z,50.90
2023-02-17T03:10:50.000Z,51.60
2023-02-17T03:11:49.994Z,51.20
2023-02-17T03:12:49.982Z,51.00
2023-02-17T03:13:50.009Z,50.40
2023-02-17T03:14:49.972Z,48.10
2023-02-17T03:16:10.991Z,48.60
2023-02-17T03:16:49.949Z,49.30
2023-02-17T03:17:49.934Z,48.00
2023-02-17T03:18:49.921Z,50.00
2023-02-17T03:19:49.915Z,50.20
2023-02-17T03:20:49.912Z,47.70
2023-02-17T03:22:10.897Z,49.40
2023-02-17T03:22:49.878Z,50.80
2023-02-17T03:23:49.866Z,49.10
2023-02-17T03:24:49.871Z,50.50
2023-02-17T03:25:49.853Z,51.50
2023-02-17T03:26:49.842Z,53.50
2023-02-17T03:28:10.833Z,53.30
2023-02-17T03:28:49.820Z,52.40
2023-02-17T03:29:49.813Z,51.90
2023-02-17T03:30:49.813Z,53.80
2023-02-17T03:31:49.922Z,53.10
2023-02-17T03:32:49.790Z,54.80
2023-02-17T03:34:10.769Z,57.30
2023-02-17T03:34:49.762Z,56.00
2023-02-17T03:35:49.749Z,56.50
2023-02-17T03:36:49.745Z,57.60
2023-02-17T03:37:49.731Z,56.70
2023-02-17T03:38:49.720Z,55.90
2023-02-17T03:40:10.719Z,55.80
2023-02-17T03:40:49.700Z,55.00
2023-02-17T03:41:49.694Z,57.10
2023-02-17T03:42:49.687Z,56.30
2023-02-17T03:43:49.671Z,57.20
2023-02-17T03:44:49.657Z,58.70
2023-02-17T03:46:10.667Z,55.90
2023-02-17T03:46:49.659Z,57.70
2023-02-17T03:47:49.632Z,58.80
2023-02-17T03:48:49.619Z,57.50
2023-02-17T03:49:49.612Z,59.50
2023-02-17T03:50:49.602Z,59.90
2023-02-17T03:52:10.604Z,60.30
2023-02-17T03:52:49.583Z,61.40
2023-02-17T03:53:49.589Z,59.70
2023-02-17T03:54:49.569Z,59.10
2023-02-17T03:55:49.558Z,61.70
2023-02-17T03:56:49.541Z,63.70
2023-02-17T03:58:10.529Z,63.70
2023-02-17T03:58:49.518Z,66.40
2023-02-17T03:59:49.512Z,64.60
2023-02-17T04:00:49.497Z,64.30
2023-02-17T04:01:49.493Z,69.60
2023-02-17T04:02:49.479Z,72.20
2023-02-17T04:04:10.648Z,69.40
2023-02-17T04:04:49.462Z,69.60
2023-02-17T04:05:49.452Z,68.60
2023-02-17T04:06:49.441Z,68.90
2023-02-17T04:07:49.434Z,71.60
2023-02-17T04:08:49.429Z,70.20
2023-02-17T04:10:10.410Z,69.00
2023-02-17T04:10:49.401Z,70.00
2023-02-17T04:11:49.389Z,73.70
2023-02-17T04:12:49.375Z,70.10
2023-02-17T04:13:49.368Z,71.40
2023-02-17T04:14:49.350Z,76.00
2023-02-17T04:16:10.358Z,73.40
2023-02-17T04:16:49.350Z,74.80
2023-02-17T04:17:49.336Z,76.00
2023-02-17T04:18:49.316Z,74.60
2023-02-17T04:19:49.311Z,74.70
2023-02-17T04:20:49.307Z,75.90
2023-02-17T04:22:10.294Z,72.90
2023-02-17T04:22:49.273Z,69.50
2023-02-17T04:23:49.281Z,78.20
2023-02-17T04:24:49.258Z,74.60
2023-02-17T04:25:49.259Z,75.30
2023-02-17T04:26:49.239Z,76.00
2023-02-17T04:28:10.235Z,74.80
2023-02-17T04:28:49.220Z,79.00
2023-02-17T04:29:49.211Z,75.70
2023-02-17T04:30:49.304Z,76.10
2023-02-17T04:31:49.312Z,79.10
2023-02-17T04:32:49.178Z,75.90
2023-02-17T04:34:10.172Z,78.10
2023-02-17T04:34:49.156Z,78.20
2023-02-17T04:35:49.152Z,78.90
2023-02-17T04:36:49.134Z,74.90
2023-02-17T04:37:49.130Z,76.60
2023-02-17T04:38:49.115Z,71.70
2023-02-17T04:40:10.130Z,75.60
2023-02-17T04:40:49.092Z,76.30
2023-02-17T04:41:49.103Z,72.30
2023-02-17T04:42:49.077Z,72.30
2023-02-17T04:43:49.084Z,78.30
2023-02-17T04:44:49.072Z,75.80
2023-02-17T04:46:10.344Z,73.50
2023-02-17T04:46:49.032Z,69.80
2023-02-17T04:47:49.027Z,73.60
2023-02-17T04:48:49.023Z,71.80
2023-02-17T04:49:49.016Z,75.30
2023-02-17T04:50:48.998Z,72.80
2023-02-17T04:52:09.996Z,74.90
2023-02-17T04:52:48.974Z,69.60
2023-02-17T04:53:48.967Z,75.00
2023-02-17T04:54:48.962Z,78.00
2023-02-17T04:55:48.953Z,74.50
2023-02-17T04:56:48.933Z,73.50
2023-02-17T04:58:09.933Z,76.20
2023-02-17T04:58:48.921Z,76.50
2023-02-17T04:59:48.906Z,69.20
2023-02-17T05:00:48.926Z,78.50
2023-02-17T05:01:48.892Z,78.80
2023-02-17T05:02:48.873Z,73.10
2023-02-17T05:04:09.880Z,76.50
2023-02-17T05:04:48.892Z,74.40
2023-02-17T05:05:48.846Z,79.70
2023-02-17T05:06:48.835Z,70.70
2023-02-17T05:07:48.828Z,80.30
2023-02-17T05:08:48.822Z,75.70
2023-02-17T05:10:09.819Z,73.60
2023-02-17T05:10:48.794Z,80.90
2023-02-17T05:11:48.787Z,77.50
2023-02-17T05:12:48.774Z,72.70
2023-02-17T05:13:48.765Z,74.70
2023-02-17T05:14:48.755Z,71.20
2023-02-17T05:16:09.917Z,75.70
2023-02-17T05:16:48.882Z,70.70
2023-02-17T05:17:48.729Z,73.10
2023-02-17T05:18:48.714Z,67.40
2023-02-17T05:19:48.711Z,68.10
2023-02-17T05:20:48.699Z,70.50
2023-02-17T05:22:09.698Z,68.10
2023-02-17T05:22:48.674Z,64.40
2023-02-17T05:23:48.714Z,62.50
2023-02-17T05:24:48.659Z,65.90
2023-02-17T05:25:48.683Z,63.60
2023-02-17T05:26:48.638Z,64.20
2023-02-17T05:28:09.633Z,61.80
2023-02-17T05:28:48.616Z,63.20
2023-02-17T05:29:48.615Z,65.50
2023-02-17T05:30:48.641Z,65.60
2023-02-17T05:31:48.708Z,65.50
2023-02-17T05:32:48.582Z,65.00
2023-02-17T05:34:09.597Z,62.40
2023-02-17T05:34:48.560Z,65.70
2023-02-17T05:35:48.551Z,68.60
2023-02-17T05:36:48.538Z,70.40
2023-02-17T05:37:48.536Z,65.20
2023-02-17T05:38:48.519Z,62.30
2023-02-17T05:40:09.531Z,66.30
2023-02-17T05:40:48.499Z,61.70
2023-02-17T05:41:48.494Z,64.30
2023-02-17T05:42:48.478Z,68.60
2023-02-17T05:43:48.471Z,67.00
2023-02-17T05:44:48.469Z,70.00
2023-02-17T05:46:09.782Z,66.00
2023-02-17T05:46:48.454Z,70.60
2023-02-17T05:47:48.436Z,62.30
2023-02-17T05:48:48.439Z,71.20
2023-02-17T05:49:48.409Z,68.30
2023-02-17T05:50:48.421Z,69.50
2023-02-17T05:52:09.394Z,72.10
2023-02-17T05:52:48.384Z,70.40
2023-02-17T05:53:48.372Z,73.30
2023-02-17T05:54:48.371Z,70.00
2023-02-17T05:55:48.912Z,79.30
2023-02-17T05:56:48.346Z,74.00
2023-02-17T05:58:09.347Z,70.50
2023-02-17T05:58:48.336Z,74.90
2023-02-17T05:59:48.318Z,70.40
2023-02-17T06:00:48.303Z,72.20
2023-02-17T06:01:48.316Z,70.30
2023-02-17T06:02:48.360Z,74.50
2023-02-17T06:04:09.278Z,70.80
2023-02-17T06:04:48.431Z,70.80
2023-02-17T06:05:48.258Z,70.20
2023-02-17T06:06:48.247Z,75.50
2023-02-17T06:07:48.232Z,68.30
2023-02-17T06:08:48.242Z,74.60
2023-02-17T06:10:09.239Z,70.20
2023-02-17T06:10:48.210Z,72.50
2023-02-17T06:11:48.198Z,70.00
2023-02-17T06:12:48.188Z,70.90
2023-02-17T06:13:48.174Z,71.30
2023-02-17T06:14:48.172Z,72.30
2023-02-17T06:16:09.612Z,64.90
2023-02-17T06:16:48.286Z,64.50
2023-02-17T06:17:48.135Z,67.40
2023-02-17T06:18:48.135Z,62.50
2023-02-17T06:19:48.116Z,64.90
2023-02-17T06:20:48.112Z,59.20
2023-02-17T06:22:09.102Z,60.60
2023-02-17T06:22:48.090Z,56.90
2023-02-17T06:23:48.080Z,59.60
2023-02-17T06:24:48.070Z,56.20
2023-02-17T06:25:48.057Z,55.90
2023-02-17T06:26:48.057Z,58.10
2023-02-17T06:28:09.043Z,58.20
2023-02-17T06:28:48.029Z,55.50
2023-02-17T06:29:48.013Z,57.00
2023-02-17T06:30:48.012Z,60.70
2023-02-17T06:31:48.194Z,59.70
2023-02-17T06:32:47.990Z,56.70
2023-02-17T06:34:08.977Z,56.30
2023-02-17T06:34:47.967Z,55.20
2023-02-17T06:35:47.951Z,55.40
2023-02-17T06:36:47.953Z,56.70
2023-02-17T06:37:47.934Z,58.00
2023-02-17T06:38:47.945Z,52.50
2023-02-17T06:40:08.935Z,52.50
2023-02-17T06:40:47.905Z,48.60
2023-02-17T06:41:47.892Z,51.00
2023-02-17T06:42:47.893Z,52.30
2023-02-17T06:43:47.872Z,48.30
2023-02-17T06:44:47.891Z,50.70
2023-02-17T06:46:09.344Z,51.70
2023-02-17T06:46:47.841Z,49.40
2023-02-17T06:47:47.837Z,48.70
2023-02-17T06:48:47.825Z,46.80
2023-02-17T06:49:47.853Z,48.40
2023-02-17T06:50:47.803Z,45.80
2023-02-17T06:52:08.821Z,45.30
2023-02-17T06:52:47.783Z,43.70
2023-02-17T06:53:47.777Z,44.70
2023-02-17T06:54:47.764Z,43.40
2023-02-17T06:55:47.756Z,47.10
2023-02-17T06:56:47.765Z,44.30
2023-02-17T06:58:08.740Z,43.40
2023-02-17T06:58:47.723Z,44.20
2023-02-17T06:59:47.727Z,43.10
2023-02-17T07:00:47.711Z,46.10
2023-02-17T07:01:47.795Z,46.50
2023-02-17T07:02:47.776Z,41.60
2023-02-17T07:04:08.693Z,43.80
2023-02-17T07:04:47.672Z,39.80
2023-02-17T07:05:47.665Z,41.70
2023-02-17T07:06:47.679Z,41.70
2023-02-17T07:07:47.641Z,42.20
2023-02-17T07:08:47.630Z,41.60
2023-02-17T07:10:08.634Z,42.60
2023-02-17T07:10:47.620Z,42.80
2023-02-17T07:11:47.603Z,42.80
2023-02-17T07:12:47.608Z,41.40
2023-02-17T07:13:47.618Z,41.40
2023-02-17T07:14:47.575Z,42.90
2023-02-17T07:16:08.885Z,40.80
2023-02-17T07:16:47.599Z,40.40
2023-02-17T07:17:47.543Z,38.30
2023-02-17T07:18:47.537Z,39.70
2023-02-17T07:19:47.629Z,37.50
2023-02-17T07:20:47.514Z,43.10
2023-02-17T07:22:08.520Z,49.60
2023-02-17T07:22:47.505Z,44.80
2023-02-17T07:23:47.498Z,42.00
2023-02-17T07:24:47.484Z,55.00
2023-02-17T07:25:47.473Z,42.20
2023-02-17T07:26:47.458Z,70.40
2023-02-17T07:28:08.463Z,51.20
2023-02-17T07:28:47.442Z,47.20
2023-02-17T07:29:47.433Z,52.70
2023-02-17T07:30:47.451Z,48.30
2023-02-17T07:31:47.448Z,34.80
2023-02-17T07:32:47.400Z,47.40
2023-02-17T07:34:08.404Z,42.60
2023-02-17T07:34:47.386Z,48.60
2023-02-17T07:35:47.388Z,42.00
2023-02-17T07:36:47.363Z,32.40
2023-02-17T07:37:47.352Z,31.30
2023-02-17T07:38:47.340Z,29.50
2023-02-17T07:40:08.350Z,37.80
2023-02-17T07:40:47.331Z,30.80
2023-02-17T07:41:47.314Z,27.70
2023-02-17T07:42:47.318Z,29.70
2023-02-17T07:43:47.296Z,29.50
2023-02-17T07:44:47.286Z,29.10
2023-02-17T07:46:08.904Z,28.90
2023-02-17T07:46:47.263Z,29.60
2023-02-17T07:47:47.260Z,31.30
2023-02-17T07:48:47.243Z,29.90
2023-02-17T07:49:47.238Z,29.50
2023-02-17T07:50:47.222Z,29.70
2023-02-17T07:52:08.225Z,37.30
2023-02-17T07:52:47.211Z,27.20
2023-02-17T07:53:47.195Z,27.70
2023-02-17T07:54:47.188Z,27.50
2023-02-17T07:55:47.178Z,26.50
2023-02-17T07:56:47.212Z,27.30
2023-02-17T07:58:08.166Z,28.40
2023-02-17T07:58:47.147Z,28.00
2023-02-17T07:59:47.147Z,27.70
2023-02-17T08:00:47.130Z,25.60
2023-02-17T08:01:47.198Z,24.40
2023-02-17T08:02:47.115Z,25.00
2023-02-17T08:04:08.233Z,25.80
2023-02-17T08:04:47.097Z,25.80
2023-02-17T08:05:48.237Z,24.90
2023-02-17T08:06:47.071Z,24.40
2023-02-17T08:07:47.067Z,24.50
2023-02-17T08:08:47.055Z,24.40
2023-02-17T08:10:08.058Z,25.60
2023-02-17T08:10:47.033Z,25.40
2023-02-17T08:11:48.922Z,25.60
2023-02-17T08:12:47.016Z,25.80
2023-02-17T08:13:47.021Z,26.00
2023-02-17T08:14:47.000Z,24.50
2023-02-17T08:16:08.390Z,25.00
2023-02-17T08:16:47.029Z,25.10
2023-02-17T08:17:49.327Z,25.30
2023-02-17T08:18:46.960Z,25.70
2023-02-17T08:19:48.815Z,25.50
2023-02-17T08:20:46.946Z,24.90
2023-02-17T08:22:07.941Z,23.90
2023-02-17T08:22:46.967Z,24.60
2023-02-17T08:23:46.946Z,25.50
2023-02-17T08:24:46.944Z,24.80
2023-02-17T08:25:46.920Z,24.30
2023-02-17T08:26:46.892Z,24.40
2023-02-17T08:28:07.894Z,24.60
2023-02-17T08:28:46.897Z,23.40
2023-02-17T08:29:46.868Z,23.80
2023-02-17T08:30:46.974Z,23.50
2023-02-17T08:31:46.945Z,23.50
2023-02-17T08:32:46.848Z,25.60
2023-02-17T08:34:07.838Z,26.40
2023-02-17T08:34:46.946Z,27.20
2023-02-17T08:35:46.811Z,26.30
2023-02-17T08:36:46.804Z,26.20
2023-02-17T08:37:46.787Z,27.40
2023-02-17T08:38:46.786Z,26.40
2023-02-17T08:40:07.778Z,26.20
2023-02-17T08:40:46.762Z,26.60
2023-02-17T08:41:46.797Z,27.20
2023-02-17T08:42:46.756Z,28.00
2023-02-17T08:43:46.765Z,28.60
2023-02-17T08:44:46.727Z,29.30
2023-02-17T08:46:08.132Z,29.60
2023-02-17T08:46:46.704Z,29.20
2023-02-17T08:47:46.705Z,28.80
2023-02-17T08:48:46.684Z,29.30
2023-02-17T08:49:46.695Z,27.70
2023-02-17T08:50:46.666Z,27.80
2023-02-17T08:52:07.676Z,29.30
2023-02-17T08:52:46.648Z,28.80
2023-02-17T08:53:46.668Z,27.40
2023-02-17T08:54:46.639Z,27.30
2023-02-17T08:55:49.410Z,27.70
2023-02-17T08:56:46.676Z,29.00
2023-02-17T08:58:07.675Z,28.00
2023-02-17T08:58:46.591Z,26.80
2023-02-17T08:59:46.601Z,28.00
2023-02-17T09:00:46.585Z,28.60
2023-02-17T09:01:46.670Z,28.60
2023-02-17T09:02:46.557Z,28.50
2023-02-17T09:04:07.569Z,29.20
2023-02-17T09:04:46.610Z,28.90
2023-02-17T09:05:46.534Z,29.10
2023-02-17T09:06:46.545Z,27.20
2023-02-17T09:07:46.524Z,29.00
2023-02-17T09:08:46.503Z,29.00
2023-02-17T09:10:07.505Z,28.70
2023-02-17T09:10:46.487Z,28.60
2023-02-17T09:11:46.505Z,26.70
2023-02-17T09:12:46.474Z,27.60
2023-02-17T09:13:46.512Z,27.10
2023-02-17T09:14:46.449Z,29.20
2023-02-17T09:16:07.907Z,28.50
2023-02-17T09:16:46.436Z,29.10
2023-02-17T09:17:46.432Z,28.30
2023-02-17T09:18:46.485Z,29.60
2023-02-17T09:19:46.422Z,30.10
2023-02-17T09:20:46.464Z,29.80
2023-02-17T09:22:07.403Z,29.50
2023-02-17T09:22:46.377Z,29.40
2023-02-17T09:23:46.454Z,29.30
2023-02-17T09:24:46.454Z,29.90
2023-02-17T09:25:46.444Z,29.80
2023-02-17T09:26:46.358Z,29.20
2023-02-17T09:28:07.347Z,29.10
2023-02-17T09:28:46.369Z,28.60
2023-02-17T09:29:46.364Z,28.60
2023-02-17T09:30:46.404Z,30.30
2023-02-17T09:31:46.488Z,29.20
2023-02-17T09:32:46.318Z,48.10
2023-02-17T09:34:07.288Z,85.20
2023-02-17T09:34:46.273Z,53.00
2023-02-17T09:35:46.267Z,32.80
2023-02-17T09:36:46.297Z,31.40
2023-02-17T09:37:46.267Z,31.90
2023-02-17T09:38:46.278Z,34.00
2023-02-17T09:40:07.239Z,33.00
2023-02-17T09:40:46.227Z,33.40
2023-02-17T09:41:46.421Z,34.40
2023-02-17T09:42:46.254Z,33.20
2023-02-17T09:43:46.216Z,31.10
2023-02-17T09:44:46.219Z,31.70
2023-02-17T09:46:07.449Z,31.00
2023-02-17T09:46:59.733Z,32.70
2023-02-17T09:47:46.167Z,34.50
2023-02-17T09:48:46.194Z,33.80
2023-02-17T09:49:46.268Z,37.40
2023-02-17T09:50:46.140Z,35.50
2023-02-17T09:52:07.154Z,35.50
2023-02-17T09:52:46.117Z,34.90
2023-02-17T09:53:46.118Z,36.10
2023-02-17T09:54:46.101Z,35.20
2023-02-17T09:55:46.143Z,37.80
2023-02-17T09:56:46.130Z,35.80
2023-02-17T09:58:07.134Z,38.00
2023-02-17T09:58:46.063Z,34.30
2023-02-17T09:59:46.080Z,35.80
2023-02-17T10:00:46.105Z,35.90
2023-02-17T10:01:46.142Z,34.50
2023-02-17T10:02:46.021Z,34.60
2023-02-17T10:04:07.089Z,33.50
2023-02-17T10:04:46.099Z,37.40
2023-02-17T10:05:45.999Z,37.70
2023-02-17T10:06:46.015Z,39.60
2023-02-17T10:07:46.003Z,38.40
2023-02-17T10:08:45.972Z,38.30
2023-02-17T10:10:07.031Z,42.10
2023-02-17T10:10:45.975Z,77.30
2023-02-17T10:11:46.010Z,38.70
2023-02-17T10:12:45.930Z,37.30
2023-02-17T10:13:45.978Z,43.40
2023-02-17T10:14:45.926Z,42.20
2023-02-17T10:16:07.238Z,39.20
2023-02-17T10:16:45.943Z,44.90
2023-02-17T10:17:45.900Z,41.30
2023-02-17T10:18:45.878Z,38.70
2023-02-17T10:19:45.870Z,36.30
2023-02-17T10:20:45.881Z,36.90
2023-02-17T10:22:06.900Z,36.80
2023-02-17T10:22:45.919Z,39.40
2023-02-17T10:23:45.907Z,43.00
2023-02-17T10:24:45.821Z,44.00
2023-02-17T10:25:45.819Z,46.60
2023-02-17T10:26:45.908Z,38.50
2023-02-17T10:28:06.855Z,42.80
2023-02-17T10:28:45.791Z,41.70
2023-02-17T10:29:45.791Z,42.30
2023-02-17T10:30:45.924Z,39.80
2023-02-17T10:31:46.036Z,37.40
2023-02-17T10:32:45.836Z,35.20
2023-02-17T10:34:06.826Z,34.80
2023-02-17T10:34:45.736Z,35.40
2023-02-17T10:35:45.730Z,36.70
2023-02-17T10:36:45.733Z,39.60
2023-02-17T10:37:45.794Z,34.10
2023-02-17T10:38:45.700Z,35.20
2023-02-17T10:40:06.727Z,33.40
2023-02-17T10:40:45.697Z,35.10
2023-02-17T10:41:45.680Z,34.30
2023-02-17T10:42:45.664Z,33.30
2023-02-17T10:43:45.679Z,35.40
2023-02-17T10:44:45.671Z,34.70
2023-02-17T10:46:06.996Z,32.30
2023-02-17T10:46:45.651Z,33.20
2023-02-17T10:47:45.624Z,31.00
2023-02-17T10:48:45.613Z,28.10
2023-02-17T10:49:45.609Z,30.40
2023-02-17T10:50:45.596Z,29.00
2023-02-17T10:52:06.594Z,30.60
2023-02-17T10:52:45.591Z,28.70
2023-02-17T10:53:45.572Z,29.10
2023-02-17T10:54:45.561Z,28.00
2023-02-17T10:55:45.562Z,31.60
2023-02-17T10:56:45.550Z,29.70
2023-02-17T10:58:06.556Z,30.30
2023-02-17T10:58:45.529Z,27.60
2023-02-17T10:59:45.525Z,29.70
2023-02-17T11:00:45.529Z,29.00
2023-02-17T11:01:45.508Z,30.40
2023-02-17T11:02:45.492Z,31.90
2023-02-17T11:04:06.603Z,26.30
2023-02-17T11:04:45.479Z,29.30
2023-02-17T11:05:45.471Z,30.80
2023-02-17T11:06:45.473Z,32.60
2023-02-17T11:07:45.453Z,34.00
2023-02-17T11:08:45.441Z,34.30
2023-02-17T11:10:06.440Z,25.40
2023-02-17T11:10:45.424Z,24.90
2023-02-17T11:11:45.421Z,25.50
2023-02-17T11:12:45.409Z,24.80
2023-02-17T11:13:45.400Z,24.00
2023-02-17T11:14:45.390Z,25.10
2023-02-17T11:16:06.771Z,25.00
2023-02-17T11:16:45.481Z,24.20
2023-02-17T11:17:45.365Z,25.30
2023-02-17T11:18:45.356Z,26.20
2023-02-17T11:19:45.351Z,25.60
2023-02-17T11:20:45.352Z,26.00
2023-02-17T11:22:06.339Z,25.40
2023-02-17T11:22:45.325Z,25.80
2023-02-17T11:23:45.321Z,25.10
2023-02-17T11:24:45.303Z,23.80
2023-02-17T11:25:45.414Z,24.30
2023-02-17T11:26:45.290Z,25.30
2023-02-17T11:28:06.293Z,24.10
2023-02-17T11:28:45.274Z,24.70
2023-02-17T11:29:45.301Z,23.90
2023-02-17T11:30:45.253Z,23.70
2023-02-17T11:31:45.410Z,22.40
2023-02-17T11:32:45.236Z,23.80
2023-02-17T11:34:06.235Z,25.20
2023-02-17T11:34:45.269Z,24.10
2023-02-17T11:35:45.217Z,23.70
2023-02-17T11:36:45.244Z,23.50
2023-02-17T11:37:45.220Z,23.40
2023-02-17T11:38:45.222Z,23.90
2023-02-17T11:40:06.187Z,23.70
2023-02-17T11:40:45.169Z,21.70
2023-02-17T11:41:45.172Z,23.20
2023-02-17T11:42:45.169Z,24.40
2023-02-17T11:43:45.156Z,24.00
2023-02-17T11:44:45.164Z,23.50
2023-02-17T11:46:06.476Z,23.30
2023-02-17T11:46:45.140Z,21.80
2023-02-17T11:47:45.119Z,20.40
2023-02-17T11:48:45.109Z,21.40
2023-02-17T11:49:45.100Z,21.70
2023-02-17T11:50:45.138Z,21.80
2023-02-17T11:52:06.089Z,20.60
2023-02-17T11:52:45.074Z,21.60
2023-02-17T11:53:45.075Z,20.20
2023-02-17T11:54:45.052Z,20.70
2023-02-17T11:55:45.070Z,19.60
2023-02-17T11:56:45.043Z,19.70
2023-02-17T11:58:06.035Z,19.60
2023-02-17T11:58:45.016Z,19.30
2023-02-17T11:59:45.059Z,18.50
2023-02-17T12:00:45.003Z,17.90
2023-02-17T12:01:45.043Z,19.40
2023-02-17T12:02:45.166Z,19.50
2023-02-17T12:04:05.989Z,19.60
2023-02-17T12:04:44.986Z,19.50
2023-02-17T12:05:44.959Z,20.60
2023-02-17T12:06:44.960Z,19.50
2023-02-17T12:07:44.944Z,19.40
2023-02-17T12:08:47.462Z,18.30
2023-02-17T12:10:05.931Z,18.80
2023-02-17T12:10:44.921Z,18.90
2023-02-17T12:11:44.908Z,17.10
2023-02-17T12:12:44.914Z,17.80
2023-02-17T12:13:44.892Z,18.10
2023-02-17T12:14:44.892Z,18.20
2023-02-17T12:16:06.190Z,17.30
2023-02-17T12:16:44.897Z,17.20
2023-02-17T12:17:44.855Z,16.30
2023-02-17T12:18:44.857Z,15.90
2023-02-17T12:19:44.840Z,16.00
2023-02-17T12:20:44.829Z,16.50
2023-02-17T12:22:05.837Z,16.00
2023-02-17T12:22:44.814Z,16.00
2023-02-17T12:23:44.812Z,16.40
2023-02-17T12:24:44.798Z,16.30
2023-02-17T12:25:44.791Z,14.30
2023-02-17T12:26:44.899Z,14.70
2023-02-17T12:28:05.789Z,14.00
2023-02-17T12:28:44.770Z,13.80
2023-02-17T12:29:44.769Z,13.90
2023-02-17T12:30:44.969Z,14.00
2023-02-17T12:31:44.855Z,13.20
2023-02-17T12:32:44.738Z,12.00
2023-02-17T12:34:05.735Z,12.40
2023-02-17T12:34:44.724Z,12.80
2023-02-17T12:35:44.716Z,11.60
2023-02-17T12:36:44.702Z,12.20
2023-02-17T12:37:44.847Z,11.10
2023-02-17T12:38:44.686Z,11.20
2023-02-17T12:40:05.688Z,10.60
2023-02-17T12:40:44.678Z,10.30
2023-02-17T12:41:44.665Z,10.10
2023-02-17T12:42:44.655Z,9.50
2023-02-17T12:43:44.649Z,9.80
2023-02-17T12:44:44.644Z,9.70
2023-02-17T12:46:05.907Z,9.50
2023-02-17T12:46:44.624Z,9.40
2023-02-17T12:47:44.627Z,9.00
2023-02-17T12:48:44.612Z,9.40
2023-02-17T12:49:44.604Z,8.90
2023-02-17T12:50:44.601Z,9.30
2023-02-17T12:52:05.594Z,9.10
2023-02-17T12:52:44.607Z,9.10
2023-02-17T12:53:44.583Z,8.60